Time;durP1;ratioP1;P1;durP2;ratioP2;P2;SDS_P1;SDS_P2;PMS_P1;PMS_P2;Temp;Humidity;BMP_temperature;BMP_pressure;BME280_temperature;BME280_humidity;BME280_pressure;Samples;Min_cycle;Max_cycle;Signal;HPM_P1;HPM_P2
2022/09/24 00:00:43;;;;;;;6.20;3.67;;;16.60;82.20;;;;;;5064383;28;20073;-79
2022/09/24 00:03:09;;;;;;;6.97;4.00;;;16.60;82.10;;;;;;5057637;28;20024;-79
2022/09/24 00:05:39;;;;;;;7.40;4.17;;;16.60;82.20;;;;;;5075701;28;20016;-79
2022/09/24 00:08:08;;;;;;;7.30;3.85;;;16.60;82.70;;;;;;5044834;28;20035;-79
2022/09/24 00:10:38;;;;;;;7.05;4.22;;;16.60;82.60;;;;;;5084977;28;20494;-79
2022/09/24 00:13:10;;;;;;;7.13;4.25;;;16.60;82.70;;;;;;5076727;28;20129;-79
2022/09/24 00:15:39;;;;;;;8.98;4.90;;;16.60;82.40;;;;;;5071737;28;20095;-79
2022/09/24 00:18:06;;;;;;;7.70;4.33;;;16.50;82.50;;;;;;5072351;28;20288;-79
2022/09/24 00:20:33;;;;;;;9.32;5.32;;;16.50;82.60;;;;;;5065048;28;20035;-79
2022/09/24 00:23:00;;;;;;;9.05;5.30;;;16.50;82.60;;;;;;5073348;28;20713;-79
2022/09/24 00:28:12;;;;;;;9.10;4.93;;;16.50;82.90;;;;;;5077858;28;20028;-79
2022/09/24 00:30:40;;;;;;;9.17;5.20;;;16.40;83.10;;;;;;5062893;28;20114;-79
2022/09/24 00:33:06;;;;;;;8.90;5.18;;;16.40;83.50;;;;;;5068827;28;20184;-80
2022/09/24 00:35:32;;;;;;;8.25;4.75;;;16.30;83.60;;;;;;5073337;28;20036;-79
2022/09/24 00:37:58;;;;;;;8.95;5.25;;;16.30;83.80;;;;;;5050377;28;20232;-79
2022/09/24 00:40:32;;;;;;;8.70;5.43;;;16.30;83.80;;;;;;5077502;28;20523;-79
2022/09/24 00:42:57;;;;;;;8.88;5.40;;;16.30;84.70;;;;;;5067598;28;20744;-79
2022/09/24 00:45:24;;;;;;;8.00;5.32;;;16.20;84.20;;;;;;5079549;28;20119;-79
2022/09/24 00:47:51;;;;;;;10.57;5.53;;;16.30;84.70;;;;;;5067219;28;20295;-80
2022/09/24 00:50:30;;;;;;;9.05;5.38;;;16.20;84.50;;;;;;5060807;28;20020;-79
2022/09/24 00:53:04;;;;;;;8.95;5.15;;;16.20;85.30;;;;;;5066198;28;20229;-79
2022/09/24 00:55:32;;;;;;;8.20;5.22;;;16.20;85.50;;;;;;5054863;28;20031;-79
2022/09/24 00:58:02;;;;;;;8.70;5.32;;;16.20;85.30;;;;;;5066369;28;20484;-79
2022/09/24 01:00:29;;;;;;;8.87;5.30;;;16.20;85.50;;;;;;5084639;28;20016;-80
2022/09/24 01:03:00;;;;;;;9.10;5.50;;;16.10;85.60;;;;;;5071402;28;20019;-79
2022/09/24 01:05:26;;;;;;;9.05;5.28;;;16.10;86.20;;;;;;5063559;28;20028;-80
2022/09/24 01:07:53;;;;;;;9.25;5.72;;;16.10;86.10;;;;;;5070065;28;20305;-80
2022/09/24 01:10:47;;;;;;;11.32;5.82;;;16.10;86.10;;;;;;5079773;28;20475;-80
2022/09/24 01:14:05;;;;;;;9.23;5.33;;;16.10;86.60;;;;;;5063416;28;20024;-79
2022/09/24 01:16:51;;;;;;;8.40;5.20;;;16.10;87.40;;;;;;4960813;28;20564;-80
2022/09/24 01:19:36;;;;;;;8.07;4.95;;;16.10;87.30;;;;;;5074551;28;20028;-80
2022/09/24 01:22:38;;;;;;;9.95;5.53;;;16.10;87.10;;;;;;5066134;28;20150;-81
2022/09/24 01:25:25;;;;;;;9.32;5.40;;;16.10;87.20;;;;;;5084868;28;20041;-80
2022/09/24 01:27:59;;;;;;;9.20;5.83;;;16.00;87.40;;;;;;5058024;28;20074;-80
2022/09/24 01:30:26;;;;;;;8.27;5.38;;;16.00;86.70;;;;;;5067823;28;20183;-80
2022/09/24 01:33:19;;;;;;;8.93;5.68;;;16.00;86.90;;;;;;5072077;28;20272;-80
2022/09/24 01:35:54;;;;;;;8.43;5.20;;;16.00;87.40;;;;;;5054576;28;20032;-80
2022/09/24 01:38:28;;;;;;;7.75;4.95;;;16.00;87.10;;;;;;5082070;28;20396;-80
2022/09/24 01:40:57;;;;;;;7.20;4.60;;;16.00;87.60;;;;;;5070359;28;20491;-80
2022/09/24 01:43:26;;;;;;;7.50;4.88;;;15.90;87.40;;;;;;5049348;28;20028;-81
2022/09/24 01:45:57;;;;;;;7.80;4.80;;;15.90;87.50;;;;;;5076691;28;20016;-80
2022/09/24 01:48:25;;;;;;;7.55;4.53;;;15.90;87.70;;;;;;5083018;28;20109;-80
2022/09/24 01:51:05;;;;;;;7.18;4.25;;;15.90;88.90;;;;;;5050204;28;20242;-80
2022/09/24 01:53:41;;;;;;;8.40;4.17;;;15.90;88.60;;;;;;5062941;28;20059;-80
2022/09/24 01:56:17;;;;;;;7.13;4.13;;;15.90;88.60;;;;;;5102748;27;20515;-80
2022/09/24 01:58:56;;;;;;;8.15;4.65;;;15.80;89.00;;;;;;5066229;28;20427;-80
2022/09/24 02:01:28;;;;;;;7.38;4.43;;;15.80;89.20;;;;;;5075001;28;20668;-80
2022/09/24 02:04:02;;;;;;;7.25;3.90;;;15.80;89.00;;;;;;5083430;28;20030;-80
2022/09/24 02:06:37;;;;;;;6.53;4.00;;;15.80;89.30;;;;;;5075050;28;20028;-80
2022/09/24 02:09:03;;;;;;;7.35;4.13;;;15.80;89.50;;;;;;5042449;28;20016;-80
2022/09/24 02:11:32;;;;;;;6.78;4.03;;;15.80;89.10;;;;;;5088371;28;20011;-80
2022/09/24 02:14:12;;;;;;;6.43;3.67;;;15.80;89.70;;;;;;5067030;28;20107;-80
2022/09/24 02:16:45;;;;;;;6.30;3.83;;;15.80;90.00;;;;;;5080842;28;20039;-80
2022/09/24 02:19:16;;;;;;;5.87;3.53;;;15.80;90.00;;;;;;5085233;28;20039;-80
2022/09/24 02:21:43;;;;;;;6.30;3.78;;;15.80;89.90;;;;;;5061135;28;22128;-80
2022/09/24 02:24:20;;;;;;;8.02;4.20;;;15.80;89.80;;;;;;5038555;28;20405;-80
2022/09/24 02:26:46;;;;;;;6.03;3.75;;;15.80;90.30;;;;;;5083812;28;20393;-81
2022/09/24 02:29:12;;;;;;;6.60;3.83;;;15.80;90.00;;;;;;5059424;28;22540;-80
2022/09/24 02:31:43;;;;;;;5.67;3.60;;;15.80;90.20;;;;;;5080098;28;20027;-81
2022/09/24 02:34:19;;;;;;;6.03;3.47;;;15.80;90.30;;;;;;5066633;28;20038;-81
2022/09/24 02:36:58;;;;;;;6.00;3.28;;;15.80;90.30;;;;;;5053048;28;20016;-81
2022/09/24 02:39:24;;;;;;;5.78;3.47;;;15.70;90.40;;;;;;5068081;28;20500;-81
2022/09/24 02:41:51;;;;;;;6.23;3.67;;;15.70;90.40;;;;;;5078442;28;20028;-80
2022/09/24 02:44:18;;;;;;;6.00;3.60;;;15.70;90.50;;;;;;5044269;28;20020;-81
2022/09/24 02:46:48;;;;;;;6.32;3.47;;;15.70;90.60;;;;;;5067980;28;20043;-81
2022/09/24 02:49:14;;;;;;;6.25;3.55;;;15.70;90.80;;;;;;5074655;28;20681;-81
2022/09/24 02:51:41;;;;;;;6.18;3.58;;;15.70;90.80;;;;;;5076271;28;20056;-81
2022/09/24 02:54:07;;;;;;;6.63;3.53;;;15.60;90.90;;;;;;5066806;28;20202;-82
2022/09/24 02:56:33;;;;;;;6.35;3.90;;;15.60;91.00;;;;;;5047696;28;20077;-81
2022/09/24 02:59:01;;;;;;;6.85;3.97;;;15.60;91.10;;;;;;5058221;28;21228;-81
2022/09/24 03:01:28;;;;;;;6.53;3.88;;;15.60;91.20;;;;;;5066390;28;20025;-81
2022/09/24 03:03:53;;;;;;;6.57;4.05;;;15.60;91.30;;;;;;5079205;28;20055;-81
2022/09/24 03:06:19;;;;;;;7.47;4.10;;;15.60;91.50;;;;;;5066254;28;20022;-80
2022/09/24 03:08:45;;;;;;;6.97;4.10;;;15.50;91.60;;;;;;5077911;28;20020;-81
2022/09/24 03:11:11;;;;;;;7.68;4.28;;;15.50;91.90;;;;;;5050762;28;20112;-81
2022/09/24 03:13:38;;;;;;;6.93;4.13;;;15.50;92.10;;;;;;5078790;28;20044;-81
2022/09/24 03:16:04;;;;;;;6.63;3.92;;;15.60;92.30;;;;;;5056786;28;20326;-80
2022/09/24 03:18:30;;;;;;;8.32;4.60;;;15.60;92.50;;;;;;5046455;28;20109;-81
2022/09/24 03:21:02;;;;;;;8.63;4.60;;;15.50;92.50;;;;;;5063957;28;20115;-80
2022/09/24 03:23:27;;;;;;;7.45;4.45;;;15.50;92.80;;;;;;5067708;28;20490;-80
2022/09/24 03:25:54;;;;;;;7.30;4.45;;;15.50;92.90;;;;;;5039165;28;20028;-80
2022/09/24 03:28:19;;;;;;;7.95;4.53;;;15.50;93.10;;;;;;5061479;28;20035;-80
2022/09/24 03:30:58;;;;;;;8.30;4.27;;;15.50;93.30;;;;;;5059176;28;20503;-80
2022/09/24 03:33:40;;;;;;;7.63;3.92;;;15.50;93.40;;;;;;5072433;28;20212;-80
2022/09/24 03:36:12;;;;;;;7.93;4.63;;;15.50;93.60;;;;;;5074237;28;20114;-81
2022/09/24 03:38:40;;;;;;;7.97;4.27;;;15.50;93.70;;;;;;5079567;27;20030;-80
2022/09/24 03:41:07;;;;;;;8.13;4.80;;;15.50;93.90;;;;;;5077822;28;20019;-81
2022/09/24 03:43:32;;;;;;;6.63;3.75;;;15.50;94.00;;;;;;5065769;28;20031;-81
2022/09/24 03:45:58;;;;;;;7.18;4.05;;;15.50;94.10;;;;;;5065397;28;20504;-81
2022/09/24 03:48:25;;;;;;;8.97;4.50;;;15.50;94.20;;;;;;5078035;28;20036;-81
2022/09/24 03:50:52;;;;;;;8.90;4.33;;;15.40;94.30;;;;;;5085896;28;20288;-81
2022/09/24 03:53:18;;;;;;;7.85;4.45;;;15.40;94.40;;;;;;5084051;28;20285;-81
2022/09/24 03:55:45;;;;;;;7.65;4.40;;;15.50;94.50;;;;;;5061362;28;20024;-81
2022/09/24 03:58:12;;;;;;;8.27;4.38;;;15.40;94.60;;;;;;5058746;28;20362;-81
2022/09/24 04:00:38;;;;;;;7.95;4.30;;;15.40;94.70;;;;;;5060628;28;20484;-81
2022/09/24 04:03:04;;;;;;;7.60;4.40;;;15.50;94.80;;;;;;5058363;28;20214;-81
2022/09/24 04:05:30;;;;;;;7.90;4.20;;;15.40;94.90;;;;;;5088298;28;20235;-81
2022/09/24 04:07:57;;;;;;;7.43;4.57;;;15.50;95.00;;;;;;5068263;28;20024;-81
2022/09/24 04:10:24;;;;;;;8.65;4.28;;;15.50;95.10;;;;;;5067290;28;20305;-81
2022/09/24 04:12:53;;;;;;;8.68;4.57;;;15.40;95.20;;;;;;5073315;28;20024;-82
2022/09/24 04:15:20;;;;;;;8.93;4.23;;;15.40;95.30;;;;;;5066310;28;20496;-82
2022/09/24 04:17:58;;;;;;;8.00;4.25;;;15.40;95.40;;;;;;5070656;28;20031;-81
2022/09/24 04:20:28;;;;;;;7.68;4.38;;;15.40;95.50;;;;;;5087414;28;20032;-82
2022/09/24 04:22:55;;;;;;;7.30;4.28;;;15.40;95.60;;;;;;5075516;28;20016;-81
2022/09/24 04:25:22;;;;;;;7.15;4.18;;;15.40;95.70;;;;;;5075249;28;20115;-82
2022/09/24 04:27:59;;;;;;;6.73;4.00;;;15.40;95.80;;;;;;5065725;28;20024;-82
2022/09/24 04:30:26;;;;;;;6.82;3.88;;;15.40;95.90;;;;;;5045890;28;20095;-82
2022/09/24 04:32:52;;;;;;;7.57;4.03;;;15.40;96.00;;;;;;5047933;28;20028;-82
2022/09/24 04:35:20;;;;;;;6.73;4.17;;;15.40;96.00;;;;;;5064403;28;20023;-82
2022/09/24 04:37:46;;;;;;;7.43;4.05;;;15.30;96.10;;;;;;5075177;28;20172;-81
2022/09/24 04:40:12;;;;;;;7.57;4.10;;;15.30;96.20;;;;;;5071097;28;20273;-81
2022/09/24 04:42:39;;;;;;;6.93;3.85;;;15.40;96.30;;;;;;5067829;28;20032;-81
2022/09/24 04:45:06;;;;;;;7.43;4.00;;;15.40;96.40;;;;;;5069742;28;20020;-82
2022/09/24 04:47:33;;;;;;;7.77;4.20;;;15.40;96.40;;;;;;5069965;28;20399;-82
2022/09/24 04:50:01;;;;;;;8.75;4.20;;;15.30;96.50;;;;;;5063684;28;20264;-81
2022/09/24 04:52:28;;;;;;;7.13;4.03;;;15.40;96.60;;;;;;5062597;28;20035;-82
2022/09/24 04:54:56;;;;;;;7.68;4.05;;;15.40;96.70;;;;;;5076346;28;20027;-82
2022/09/24 04:57:22;;;;;;;7.72;4.25;;;15.40;96.80;;;;;;5063956;28;20027;-82
2022/09/24 04:59:48;;;;;;;6.97;4.00;;;15.40;96.80;;;;;;5079388;28;20101;-82
2022/09/24 05:02:14;;;;;;;7.55;3.95;;;15.30;96.80;;;;;;5040689;28;20040;-82
2022/09/24 05:04:39;;;;;;;7.33;4.20;;;15.30;96.90;;;;;;5041907;28;20605;-82
2022/09/24 05:07:05;;;;;;;6.88;4.15;;;15.30;96.90;;;;;;5083067;28;20023;-82
2022/09/24 05:09:31;;;;;;;6.97;4.10;;;15.30;97.00;;;;;;5022899;28;20031;-83
2022/09/24 05:12:00;;;;;;;7.95;4.40;;;15.30;97.00;;;;;;5057432;28;20056;-83
2022/09/24 05:14:26;;;;;;;7.68;4.13;;;15.30;97.10;;;;;;5051981;28;20021;-84
2022/09/24 05:16:52;;;;;;;7.40;4.10;;;15.30;97.10;;;;;;5044555;28;20067;-84
2022/09/24 05:19:18;;;;;;;7.65;4.47;;;15.30;97.20;;;;;;5066007;28;20311;-82
2022/09/24 05:21:43;;;;;;;8.80;4.70;;;15.30;97.30;;;;;;5066091;28;20972;-82
2022/09/24 05:24:09;;;;;;;8.23;4.37;;;15.30;97.30;;;;;;5057572;28;20476;-83
2022/09/24 05:29:19;;;;;;;8.38;4.38;;;15.30;97.50;;;;;;5075262;28;20275;-82
2022/09/24 05:31:44;;;;;;;7.97;4.35;;;15.30;97.50;;;;;;5061903;28;20032;-82
2022/09/24 05:34:10;;;;;;;8.67;4.30;;;15.30;97.70;;;;;;5057737;28;21370;-82
2022/09/24 05:36:36;;;;;;;8.33;4.23;;;15.20;97.70;;;;;;5064973;28;20023;-83
2022/09/24 05:39:02;;;;;;;8.55;4.43;;;15.30;97.80;;;;;;5054452;28;20028;-82
2022/09/24 05:41:28;;;;;;;7.90;4.43;;;15.20;97.80;;;;;;5069083;28;20224;-83
2022/09/24 05:43:57;;;;;;;7.03;4.27;;;15.30;97.90;;;;;;5064256;28;20028;-84
2022/09/24 05:46:23;;;;;;;8.15;4.63;;;15.30;97.90;;;;;;5073306;28;20109;-82
2022/09/24 05:48:48;;;;;;;7.00;3.95;;;15.30;98.30;;;;;;5052680;28;20042;-83
2022/09/24 05:51:14;;;;;;;8.50;4.67;;;15.30;98.10;;;;;;5055850;28;20246;-82
2022/09/24 05:53:40;;;;;;;7.13;4.18;;;15.30;98.20;;;;;;5052983;28;20027;-83
2022/09/24 05:56:05;;;;;;;9.47;4.87;;;15.20;98.20;;;;;;5032941;28;20047;-82
2022/09/24 05:58:31;;;;;;;8.57;4.55;;;15.30;98.30;;;;;;5072954;28;20032;-83
2022/09/24 06:01:00;;;;;;;8.10;4.70;;;15.30;98.30;;;;;;5054296;28;20027;-84
2022/09/24 06:03:26;;;;;;;8.57;5.05;;;15.30;98.40;;;;;;5060782;28;20149;-82
2022/09/24 06:05:52;;;;;;;8.90;4.90;;;15.30;98.40;;;;;;5067806;28;20023;-82
2022/09/24 06:08:19;;;;;;;8.07;4.37;;;15.30;98.40;;;;;;5065784;28;20032;-82
2022/09/24 06:10:46;;;;;;;8.30;4.18;;;15.30;98.50;;;;;;5038595;28;20027;-82
2022/09/24 06:13:16;;;;;;;7.97;4.57;;;15.30;98.60;;;;;;5069378;28;20329;-82
2022/09/24 06:15:43;;;;;;;9.88;4.93;;;15.40;98.70;;;;;;5076332;28;20565;-82
2022/09/24 06:18:10;;;;;;;6.67;3.83;;;15.40;98.70;;;;;;5042624;28;20461;-82
2022/09/24 06:20:36;;;;;;;8.82;4.75;;;15.40;98.80;;;;;;5070396;28;20251;-83
2022/09/24 06:23:02;;;;;;;9.32;4.68;;;15.40;98.80;;;;;;5067035;28;20077;-82
2022/09/24 06:25:28;;;;;;;10.00;4.90;;;15.40;98.80;;;;;;5050835;28;20032;-82
2022/09/24 06:27:59;;;;;;;8.73;4.65;;;15.40;98.90;;;;;;5087998;28;20020;-82
2022/09/24 06:30:33;;;;;;;8.63;4.60;;;15.40;99.00;;;;;;5062075;28;20028;-82
2022/09/24 06:33:04;;;;;;;9.85;5.28;;;15.40;99.00;;;;;;5070537;28;20235;-84
2022/09/24 06:35:32;;;;;;;9.32;5.03;;;15.40;99.00;;;;;;5053040;28;20038;-82
2022/09/24 06:37:58;;;;;;;9.10;4.93;;;15.40;99.00;;;;;;5049062;28;20619;-83
2022/09/24 06:40:25;;;;;;;8.67;5.00;;;15.40;99.10;;;;;;5058676;28;20136;-83
2022/09/24 06:42:52;;;;;;;9.05;5.15;;;15.40;99.10;;;;;;5057121;28;20040;-83
2022/09/24 06:45:19;;;;;;;9.70;5.20;;;15.50;99.10;;;;;;5049985;28;20124;-82
2022/09/24 06:47:51;;;;;;;9.00;4.63;;;15.40;99.20;;;;;;5069089;28;20304;-83
2022/09/24 06:50:17;;;;;;;10.33;5.10;;;15.40;99.30;;;;;;5052405;28;20301;-83
2022/09/24 06:52:43;;;;;;;9.15;5.25;;;15.50;99.30;;;;;;5062464;28;20220;-83
2022/09/24 06:55:08;;;;;;;10.00;5.13;;;15.50;99.40;;;;;;5056348;28;20058;-83
2022/09/24 06:57:34;;;;;;;8.55;4.80;;;15.50;99.40;;;;;;5059614;28;20273;-82
2022/09/24 06:59:59;;;;;;;8.40;4.80;;;15.50;99.40;;;;;;5072717;28;20028;-82
2022/09/24 07:02:25;;;;;;;10.00;5.27;;;15.50;99.60;;;;;;5037353;28;20085;-82
2022/09/24 07:04:50;;;;;;;7.85;4.53;;;15.50;99.60;;;;;;5053734;28;20101;-84
2022/09/24 07:07:28;;;;;;;9.20;5.13;;;15.50;99.60;;;;;;5062119;28;20496;-83
2022/09/24 07:09:54;;;;;;;8.85;5.10;;;15.50;99.90;;;;;;5060169;28;20016;-83
2022/09/24 07:12:20;;;;;;;9.15;4.95;;;15.50;99.60;;;;;;5060475;28;20028;-83
2022/09/24 07:14:46;;;;;;;8.77;5.10;;;15.50;99.70;;;;;;5048413;28;20066;-82
2022/09/24 07:17:11;;;;;;;9.07;4.88;;;15.60;99.70;;;;;;5065743;28;20427;-83
2022/09/24 07:19:37;;;;;;;9.73;5.00;;;15.50;99.70;;;;;;5058615;28;20047;-83
2022/09/24 07:22:03;;;;;;;10.32;5.18;;;15.60;99.80;;;;;;5052412;28;20318;-82
2022/09/24 07:24:29;;;;;;;10.18;5.10;;;15.60;99.80;;;;;;5067134;28;20099;-82
2022/09/24 07:26:54;;;;;;;9.17;4.97;;;15.60;99.90;;;;;;5060434;28;20030;-83
2022/09/24 07:29:20;;;;;;;8.27;4.53;;;15.60;99.90;;;;;;5056498;28;20016;-83
2022/09/24 07:31:46;;;;;;;9.80;5.43;;;15.60;99.90;;;;;;5059315;28;20028;-84
2022/09/24 07:34:12;;;;;;;10.10;5.20;;;15.60;99.90;;;;;;5068105;28;20073;-83
2022/09/24 07:36:39;;;;;;;9.35;5.05;;;15.60;99.90;;;;;;5048465;28;20516;-83
2022/09/24 07:39:05;;;;;;;10.25;5.28;;;15.60;99.90;;;;;;5067887;28;20622;-83
2022/09/24 07:41:31;;;;;;;10.38;5.70;;;15.60;99.90;;;;;;5027226;28;20020;-82
2022/09/24 07:43:57;;;;;;;8.75;5.15;;;15.60;99.90;;;;;;5070334;28;20392;-83
2022/09/24 07:46:23;;;;;;;8.90;4.93;;;15.70;99.90;;;;;;5046381;28;20025;-83
2022/09/24 07:48:55;;;;;;;7.78;4.28;;;15.60;99.90;;;;;;5067726;28;20701;-83
2022/09/24 07:51:22;;;;;;;8.85;5.38;;;15.70;99.90;;;;;;5058564;28;20519;-83
2022/09/24 07:53:47;;;;;;;8.93;4.90;;;15.70;99.90;;;;;;5051467;28;20085;-82
2022/09/24 07:56:13;;;;;;;10.35;5.68;;;15.70;99.90;;;;;;5079146;28;20028;-83
2022/09/24 07:58:39;;;;;;;9.02;4.90;;;15.70;99.90;;;;;;5055017;28;20088;-83
2022/09/24 08:01:05;;;;;;;9.32;4.93;;;15.80;99.90;;;;;;5048514;28;20028;-82
2022/09/24 08:03:31;;;;;;;8.97;5.03;;;15.70;99.90;;;;;;5057470;28;20016;-82
2022/09/24 08:05:58;;;;;;;10.57;5.25;;;15.70;99.90;;;;;;5070691;28;20062;-82
2022/09/24 08:08:25;;;;;;;11.02;5.25;;;15.80;99.90;;;;;;5057988;28;20124;-83
2022/09/24 08:10:51;;;;;;;10.32;5.60;;;15.80;99.90;;;;;;5060151;28;20553;-82
2022/09/24 08:13:16;;;;;;;9.23;5.40;;;15.90;99.90;;;;;;5064138;28;20016;-82
2022/09/24 08:15:42;;;;;;;9.63;5.22;;;15.90;99.90;;;;;;5055650;28;20110;-83
2022/09/24 08:18:09;;;;;;;9.63;5.67;;;15.90;99.90;;;;;;5061419;28;20032;-83
2022/09/24 08:20:36;;;;;;;9.25;5.13;;;15.90;99.90;;;;;;5055968;28;20032;-82
2022/09/24 08:23:04;;;;;;;9.98;5.32;;;16.00;99.90;;;;;;5054094;28;20039;-82
2022/09/24 08:25:30;;;;;;;10.13;5.22;;;15.90;99.90;;;;;;5055439;28;20020;-82
2022/09/24 08:28:01;;;;;;;9.85;5.28;;;16.00;99.90;;;;;;5049760;28;20359;-83
2022/09/24 08:30:26;;;;;;;9.97;4.83;;;16.00;99.90;;;;;;5056246;28;20093;-82
2022/09/24 08:32:52;;;;;;;9.25;5.00;;;16.00;99.90;;;;;;5062807;28;20032;-82
2022/09/24 08:35:18;;;;;;;8.90;5.00;;;16.10;99.90;;;;;;5057579;28;20503;-82
2022/09/24 08:37:43;;;;;;;9.90;5.70;;;16.10;99.90;;;;;;5055440;28;20108;-84
2022/09/24 08:40:17;;;;;;;10.43;4.97;;;16.10;99.90;;;;;;5053171;28;20040;-82
2022/09/24 08:42:52;;;;;;;9.95;5.25;;;16.10;99.90;;;;;;5048333;28;20460;-82
2022/09/24 08:48:20;;;;;;;8.35;5.15;;;16.10;99.90;;;;;;5058005;28;20040;-82
2022/09/24 08:50:57;;;;;;;8.73;4.70;;;16.20;99.90;;;;;;5058767;28;20046;-80
2022/09/24 08:53:38;;;;;;;8.63;4.75;;;16.20;99.90;;;;;;5051899;28;22818;-81
2022/09/24 08:56:07;;;;;;;8.80;4.72;;;16.20;99.90;;;;;;5039123;28;20374;-82
2022/09/24 08:58:57;;;;;;;8.95;5.18;;;16.20;99.90;;;;;;5069023;28;20680;-82
2022/09/24 09:01:37;;;;;;;9.20;4.85;;;16.30;99.90;;;;;;5064097;28;20047;-82
2022/09/24 09:04:32;;;;;;;9.30;5.03;;;16.30;99.90;;;;;;5062757;28;20020;-82
2022/09/24 09:07:07;;;;;;;10.27;5.18;;;16.20;99.90;;;;;;5073517;28;20024;-82
2022/09/24 09:09:54;;;;;;;10.38;5.38;;;16.30;99.90;;;;;;5050660;28;20044;-82
2022/09/24 09:12:33;;;;;;;9.43;5.03;;;16.30;99.90;;;;;;5058623;28;20385;-83
2022/09/24 09:15:06;;;;;;;9.80;5.53;;;16.30;99.90;;;;;;5061025;28;20028;-84
2022/09/24 09:17:41;;;;;;;9.90;5.13;;;16.20;99.90;;;;;;5054669;28;20036;-82
2022/09/24 09:20:17;;;;;;;9.20;5.05;;;16.30;99.90;;;;;;5061248;28;20492;-83
2022/09/24 09:22:50;;;;;;;9.45;5.50;;;16.30;99.90;;;;;;5044830;28;20032;-84
2022/09/24 09:25:29;;;;;;;9.98;5.57;;;16.30;99.90;;;;;;5054033;28;20055;-84
2022/09/24 09:28:13;;;;;;;10.70;5.35;;;16.30;99.90;;;;;;5074108;28;20021;-84
2022/09/24 09:30:53;;;;;;;10.53;5.37;;;16.30;99.90;;;;;;5057704;28;20021;-84
2022/09/24 09:33:47;;;;;;;10.00;5.55;;;16.30;99.90;;;;;;5031149;28;20020;-84
2022/09/24 09:36:30;;;;;;;9.80;5.60;;;16.30;99.90;;;;;;5068627;28;20055;-83
2022/09/24 09:39:14;;;;;;;9.63;5.45;;;16.30;99.90;;;;;;5066346;28;20036;-83
2022/09/24 09:41:51;;;;;;;9.45;5.63;;;16.30;99.90;;;;;;5047603;28;20036;-83
2022/09/24 09:44:28;;;;;;;9.57;5.30;;;16.40;99.90;;;;;;5041761;28;20036;-84
2022/09/24 09:47:19;;;;;;;8.93;5.18;;;16.30;99.90;;;;;;5075399;28;20020;-83
2022/09/24 09:49:48;;;;;;;9.43;5.55;;;16.40;99.90;;;;;;5036438;28;20498;-83
2022/09/24 09:52:19;;;;;;;11.02;5.68;;;16.40;99.90;;;;;;5060475;28;20028;-83
2022/09/24 09:54:46;;;;;;;11.35;5.80;;;16.40;99.90;;;;;;5056827;28;20511;-82
2022/09/24 09:57:21;;;;;;;10.33;5.83;;;16.40;99.90;;;;;;5048332;28;20514;-82
2022/09/24 09:59:52;;;;;;;10.38;5.82;;;16.40;99.90;;;;;;5073178;28;20024;-82
2022/09/24 10:02:28;;;;;;;8.57;5.40;;;16.40;99.90;;;;;;5064487;28;20335;-83
2022/09/24 10:05:02;;;;;;;9.32;5.57;;;16.40;99.90;;;;;;5065210;28;20020;-83
2022/09/24 10:07:30;;;;;;;11.45;5.40;;;16.40;99.90;;;;;;5042797;28;20160;-83
2022/09/24 10:10:23;;;;;;;10.93;5.73;;;16.40;99.90;;;;;;5060198;28;20028;-83
2022/09/24 10:13:09;;;;;;;9.60;5.40;;;16.40;99.90;;;;;;5052724;28;20504;-83
2022/09/24 10:15:50;;;;;;;9.32;5.25;;;16.40;99.90;;;;;;5061746;28;20243;-83
2022/09/24 10:18:16;;;;;;;7.70;4.72;;;16.40;99.90;;;;;;5053762;28;20019;-83
2022/09/24 10:20:47;;;;;;;10.25;5.35;;;16.40;99.90;;;;;;5060963;28;20024;-83
2022/09/24 10:23:20;;;;;;;9.10;5.37;;;16.40;99.90;;;;;;5059380;28;20035;-84
2022/09/24 10:25:52;;;;;;;9.88;5.00;;;16.40;99.90;;;;;;5063144;28;20056;-84
2022/09/24 10:31:11;;;;;;;7.88;4.82;;;16.40;99.90;;;;;;5061207;28;20024;-84
2022/09/24 10:33:39;;;;;;;8.27;4.57;;;16.40;99.90;;;;;;5066542;28;20342;-85
2022/09/24 10:36:12;;;;;;;9.00;5.17;;;16.40;99.90;;;;;;5054248;28;20452;-84
2022/09/24 10:38:38;;;;;;;9.02;5.20;;;16.40;99.90;;;;;;5063906;28;20346;-85
2022/09/24 10:41:34;;;;;;;8.88;5.10;;;16.40;99.90;;;;;;5045223;28;20492;-85
2022/09/24 10:44:04;;;;;;;7.80;4.60;;;16.30;99.90;;;;;;5061063;28;20099;-84
2022/09/24 10:46:57;;;;;;;8.38;5.15;;;16.30;99.90;;;;;;5058871;28;20258;-84
2022/09/24 10:49:42;;;;;;;9.30;4.63;;;16.30;99.90;;;;;;5056157;28;20032;-84
2022/09/24 10:52:33;;;;;;;9.52;5.07;;;16.30;99.90;;;;;;5052463;28;20892;-84
2022/09/24 10:55:10;;;;;;;8.48;5.15;;;16.30;99.90;;;;;;5070694;28;20588;-85
2022/09/24 10:57:51;;;;;;;11.40;5.40;;;16.20;99.90;;;;;;5081119;27;21446;-85
2022/09/24 11:00:27;;;;;;;10.02;4.72;;;16.20;99.90;;;;;;5054884;28;20031;-85
2022/09/24 11:03:31;;;;;;;8.68;5.13;;;16.20;99.90;;;;;;5055716;28;20161;-85
2022/09/24 11:06:01;;;;;;;8.45;4.80;;;16.20;99.90;;;;;;5049889;28;20063;-85
2022/09/24 11:09:04;;;;;;;8.55;4.70;;;16.20;99.90;;;;;;5056946;28;20289;-83
2022/09/24 11:11:55;;;;;;;9.03;4.63;;;16.10;99.90;;;;;;5057958;28;20039;-85
2022/09/24 11:14:57;;;;;;;8.02;4.78;;;16.10;99.90;;;;;;5050351;28;20351;-85
2022/09/24 11:17:40;;;;;;;8.07;4.50;;;16.10;99.90;;;;;;5060759;28;20412;-85
2022/09/24 11:20:20;;;;;;;7.90;4.43;;;16.10;99.90;;;;;;5075458;28;20431;-85
2022/09/24 11:23:07;;;;;;;9.27;5.05;;;16.10;99.90;;;;;;5048447;28;20029;-85
2022/09/24 11:26:11;;;;;;;8.20;4.93;;;16.10;99.90;;;;;;5049037;28;20070;-85
2022/09/24 11:28:36;;;;;;;8.18;4.70;;;16.10;99.90;;;;;;4981798;28;20218;-85
2022/09/24 11:31:19;;;;;;;7.57;4.53;;;16.10;99.90;;;;;;4997350;28;20029;-85
2022/09/24 11:34:04;;;;;;;7.93;4.53;;;16.10;99.90;;;;;;5044372;28;20261;-84
2022/09/24 11:36:54;;;;;;;7.18;4.60;;;16.10;99.90;;;;;;5060909;28;20028;-82
2022/09/24 11:39:48;;;;;;;6.82;4.30;;;16.10;99.90;;;;;;5067479;28;20284;-83
2022/09/24 11:42:44;;;;;;;7.90;4.40;;;16.20;99.90;;;;;;5050944;28;20055;-84
2022/09/24 11:45:10;;;;;;;7.97;4.60;;;16.20;99.90;;;;;;5059370;28;20535;-83
2022/09/24 11:47:38;;;;;;;7.65;4.32;;;16.20;99.90;;;;;;5037544;28;20047;-84
2022/09/24 11:50:39;;;;;;;7.63;4.70;;;16.20;99.90;;;;;;5068362;28;20051;-82
2022/09/24 11:53:28;;;;;;;7.33;4.47;;;16.20;99.90;;;;;;5050278;28;20016;-83
2022/09/24 11:56:16;;;;;;;6.65;4.32;;;16.20;99.90;;;;;;5083541;28;20028;-83
2022/09/24 11:58:59;;;;;;;8.55;4.53;;;16.20;99.90;;;;;;5069655;28;20040;-83
2022/09/24 12:01:27;;;;;;;7.88;4.45;;;16.20;99.90;;;;;;5064677;28;20035;-84
2022/09/24 12:04:18;;;;;;;7.13;4.30;;;16.30;99.90;;;;;;5066300;28;20020;-82
2022/09/24 12:06:44;;;;;;;7.50;4.20;;;16.30;99.90;;;;;;5050561;28;20187;-84
2022/09/24 12:09:24;;;;;;;8.68;4.15;;;16.30;99.90;;;;;;5068381;28;20059;-85
2022/09/24 12:12:14;;;;;;;9.23;4.63;;;16.30;99.90;;;;;;5048458;28;20350;-85
2022/09/24 12:14:52;;;;;;;7.77;4.33;;;16.30;99.90;;;;;;5063189;28;20256;-84
2022/09/24 12:17:26;;;;;;;7.78;4.30;;;16.30;99.90;;;;;;5045954;28;20494;-84
2022/09/24 12:20:00;;;;;;;7.00;3.80;;;16.20;99.90;;;;;;5069117;28;20076;-84
2022/09/24 12:22:29;;;;;;;8.15;4.32;;;16.20;99.90;;;;;;5060770;28;20059;-84
2022/09/24 12:24:58;;;;;;;7.45;4.13;;;16.20;99.90;;;;;;5038302;28;20088;-85
2022/09/24 12:27:37;;;;;;;7.50;4.10;;;16.20;99.90;;;;;;5070473;28;20020;-85
2022/09/24 12:33:34;;;;;;;6.93;4.03;;;16.20;99.90;;;;;;5067338;28;20126;-85
2022/09/24 12:36:18;;;;;;;7.35;4.10;;;16.20;99.90;;;;;;5042521;28;20464;-85
2022/09/24 12:38:53;;;;;;;6.75;3.78;;;16.20;99.90;;;;;;5065134;28;20032;-85
2022/09/24 12:41:31;;;;;;;7.00;3.63;;;16.20;99.90;;;;;;5044397;28;20144;-85
2022/09/24 12:44:19;;;;;;;6.50;3.70;;;16.20;99.90;;;;;;5073825;28;20020;-85
2022/09/24 12:46:57;;;;;;;6.80;4.15;;;16.20;99.90;;;;;;5068803;28;20469;-85
2022/09/24 12:49:34;;;;;;;6.57;3.60;;;16.20;99.90;;;;;;5070055;28;20035;-85
2022/09/24 12:52:03;;;;;;;6.53;3.65;;;16.20;99.90;;;;;;5044915;28;20024;-84
2022/09/24 12:54:34;;;;;;;6.83;4.20;;;16.20;99.90;;;;;;5050498;28;20492;-85
2022/09/24 12:57:22;;;;;;;7.05;4.28;;;16.30;99.90;;;;;;5028094;28;20489;-85
2022/09/24 12:59:49;;;;;;;7.97;4.43;;;16.20;99.90;;;;;;5063415;28;20148;-85
2022/09/24 13:02:22;;;;;;;7.90;4.68;;;16.30;99.90;;;;;;5044691;28;20236;-85
2022/09/24 13:05:00;;;;;;;7.35;4.50;;;16.30;99.90;;;;;;5058309;28;20035;-85
2022/09/24 13:07:34;;;;;;;7.00;4.17;;;16.30;99.90;;;;;;5069663;28;20396;-85
2022/09/24 13:10:34;;;;;;;8.65;4.40;;;16.30;99.90;;;;;;5061209;28;20656;-85
2022/09/24 13:13:00;;;;;;;7.40;3.90;;;16.30;99.90;;;;;;5021514;28;20312;-84
2022/09/24 13:15:33;;;;;;;8.27;4.00;;;16.30;99.90;;;;;;5051009;28;20550;-85
2022/09/24 13:18:03;;;;;;;8.32;4.55;;;16.30;99.90;;;;;;5045234;28;20402;-84
2022/09/24 13:20:31;;;;;;;8.73;4.33;;;16.30;99.90;;;;;;5052005;28;20025;-85
2022/09/24 13:23:18;;;;;;;10.88;5.45;;;16.40;99.90;;;;;;5039270;28;20025;-85
2022/09/24 13:26:06;;;;;;;9.85;5.05;;;16.40;99.90;;;;;;5074632;28;20029;-85